Time;durP1;ratioP1;P1;durP2;ratioP2;P2;SDS_P1;SDS_P2;PMS_P1;PMS_P2;Temp;Humidity;BMP_temperature;BMP_pressure;BME280_temperature;BME280_humidity;BME280_pressure;Samples;Min_cycle;Max_cycle;Signal;HPM_P1;HPM_P2
2022/09/28 00:01:54;;;;;;;5.85;4.43;;;7.90;99.90;;;;;;5032806;28;20479;-77
2022/09/28 00:04:20;;;;;;;5.68;4.28;;;7.90;99.90;;;;;;5032280;28;20045;-77
2022/09/28 00:06:46;;;;;;;5.45;4.25;;;7.90;99.90;;;;;;5050088;28;20099;-77
2022/09/28 00:09:12;;;;;;;6.00;4.03;;;7.80;99.90;;;;;;5048415;28;20086;-78
2022/09/28 00:11:38;;;;;;;5.85;4.32;;;7.80;99.90;;;;;;5033492;28;20033;-77
2022/09/28 00:14:06;;;;;;;5.10;4.32;;;7.80;99.90;;;;;;5050602;28;20472;-77
2022/09/28 00:16:42;;;;;;;4.53;3.63;;;7.80;99.90;;;;;;5050197;28;20052;-77
2022/09/28 00:19:09;;;;;;;5.03;3.78;;;7.80;99.90;;;;;;5031612;28;20087;-77
2022/09/28 00:21:38;;;;;;;5.55;4.15;;;7.70;99.90;;;;;;5050002;28;20442;-77
2022/09/28 00:24:11;;;;;;;6.55;4.38;;;7.70;99.90;;;;;;5030318;28;20132;-77
2022/09/28 00:26:38;;;;;;;;;;;7.70;99.90;;;;;;5047920;28;20084;-77
2022/09/28 00:29:03;;;;;;;5.38;4.07;;;7.70;99.90;;;;;;5025253;28;19921;-77
2022/09/28 00:31:31;;;;;;;4.95;3.97;;;7.60;99.90;;;;;;5049343;28;20063;-77
2022/09/28 00:33:59;;;;;;;5.25;4.22;;;7.60;99.90;;;;;;5032041;28;20043;-77
2022/09/28 00:36:27;;;;;;;5.35;4.32;;;7.60;99.90;;;;;;5033557;28;20029;-77
2022/09/28 00:38:55;;;;;;;5.03;4.20;;;7.60;99.90;;;;;;5025030;28;20048;-77
2022/09/28 00:41:22;;;;;;;5.18;3.83;;;7.60;99.90;;;;;;5050873;28;20056;-77
2022/09/28 00:43:48;;;;;;;4.97;3.95;;;7.60;99.90;;;;;;5051786;28;20033;-77
2022/09/28 00:46:34;;;;;;;5.72;4.40;;;7.60;99.90;;;;;;5034012;28;20095;-77
2022/09/28 00:49:06;;;;;;;5.32;4.13;;;7.50;99.90;;;;;;5028147;28;20191;-77
2022/09/28 00:51:37;;;;;;;6.88;4.88;;;7.50;99.90;;;;;;5053206;28;20033;-77
2022/09/28 00:54:04;;;;;;;5.70;4.65;;;7.50;99.90;;;;;;5036607;28;20479;-77
2022/09/28 00:56:33;;;;;;;5.32;4.00;;;7.50;99.90;;;;;;5045521;28;20186;-77
2022/09/28 00:59:00;;;;;;;5.35;4.35;;;7.40;99.90;;;;;;5051012;28;20520;-77
2022/09/28 01:01:26;;;;;;;5.30;4.03;;;7.40;99.90;;;;;;5052284;28;20049;-77
2022/09/28 01:03:53;;;;;;;4.82;4.22;;;7.40;99.90;;;;;;5053020;28;20129;-77
2022/09/28 01:06:26;;;;;;;6.40;4.95;;;7.40;99.90;;;;;;5036340;28;20037;-77
2022/09/28 01:08:57;;;;;;;6.28;4.70;;;7.30;99.90;;;;;;5044107;28;20041;-77
2022/09/28 01:11:23;;;;;;;5.63;4.47;;;7.30;99.90;;;;;;5036273;28;20041;-77
2022/09/28 01:13:51;;;;;;;5.25;4.30;;;7.30;99.90;;;;;;5052109;28;20380;-77
2022/09/28 01:16:34;;;;;;;6.63;5.03;;;7.30;99.90;;;;;;5052787;28;20060;-77
2022/09/28 01:19:25;;;;;;;5.63;4.47;;;7.20;99.90;;;;;;5028137;28;20058;-77
2022/09/28 01:21:58;;;;;;;6.57;5.00;;;7.20;99.90;;;;;;5035890;28;20139;-77
2022/09/28 01:24:39;;;;;;;6.43;5.00;;;7.20;99.90;;;;;;5035601;28;20398;-77
2022/09/28 01:27:05;;;;;;;5.85;4.43;;;7.10;99.90;;;;;;5028200;28;20041;-77
2022/09/28 01:29:38;;;;;;;6.95;5.28;;;7.10;99.90;;;;;;5050379;28;20084;-77
2022/09/28 01:32:12;;;;;;;;;;;7.10;99.90;;;;;;5045155;28;20041;-77
2022/09/28 01:34:55;;;;;;;6.22;4.15;;;7.20;99.90;;;;;;5052246;28;19917;-77
2022/09/28 01:37:29;;;;;;;6.53;4.90;;;7.20;99.90;;;;;;5052418;28;20063;-77
2022/09/28 01:39:57;;;;;;;7.22;5.30;;;7.20;99.90;;;;;;5033527;28;20415;-77
2022/09/28 01:42:28;;;;;;;6.50;4.47;;;7.20;99.90;;;;;;5052320;28;20491;-77
2022/09/28 01:44:59;;;;;;;6.50;5.03;;;7.20;99.90;;;;;;5030867;28;20082;-77
2022/09/28 01:47:25;;;;;;;5.88;4.53;;;7.20;99.90;;;;;;5046898;28;20045;-77
2022/09/28 01:49:59;;;;;;;6.53;4.75;;;7.10;99.90;;;;;;5051363;28;20075;-77
2022/09/28 01:52:31;;;;;;;5.40;3.88;;;7.10;99.90;;;;;;5031193;28;20116;-78
2022/09/28 01:55:12;;;;;;;5.70;3.97;;;7.10;99.90;;;;;;5031424;28;20043;-77
2022/09/28 01:57:44;;;;;;;4.60;3.47;;;7.00;99.90;;;;;;5035395;28;20450;-78
2022/09/28 02:00:12;;;;;;;4.15;3.42;;;7.00;99.90;;;;;;5035850;28;20044;-78
2022/09/28 02:02:47;;;;;;;4.97;3.80;;;6.90;99.90;;;;;;5052228;28;20036;-77
2022/09/28 02:05:19;;;;;;;5.28;3.65;;;6.90;99.90;;;;;;5033801;28;20033;-77
2022/09/28 02:07:58;;;;;;;6.63;4.60;;;6.80;99.90;;;;;;5050922;28;20538;-77
2022/09/28 02:10:29;;;;;;;6.53;4.15;;;6.80;99.90;;;;;;5033980;28;20291;-77
2022/09/28 02:13:01;;;;;;;3.97;3.25;;;6.70;99.90;;;;;;5051011;28;20040;-78
2022/09/28 02:15:39;;;;;;;4.53;3.20;;;6.70;99.90;;;;;;5033166;28;20047;-77
2022/09/28 02:18:05;;;;;;;5.05;3.80;;;6.60;99.90;;;;;;5044362;28;20505;-77
2022/09/28 02:20:33;;;;;;;5.28;3.78;;;6.60;99.90;;;;;;5035445;28;20136;-77
2022/09/28 02:23:01;;;;;;;5.55;4.15;;;6.50;99.90;;;;;;5051980;28;20521;-77
2022/09/28 02:25:30;;;;;;;4.82;3.75;;;6.50;99.90;;;;;;5051071;28;20402;-77
2022/09/28 02:28:04;;;;;;;5.45;4.20;;;6.50;99.90;;;;;;5050685;28;20068;-77
2022/09/28 02:30:31;;;;;;;5.38;3.97;;;6.50;99.90;;;;;;5035459;28;20036;-77
2022/09/28 02:33:11;;;;;;;4.10;2.80;;;6.40;99.90;;;;;;5050993;28;20098;-76
2022/09/28 02:35:39;;;;;;;3.17;2.60;;;6.40;99.90;;;;;;5050341;28;20507;-76
2022/09/28 02:38:04;;;;;;;3.60;3.00;;;6.40;99.90;;;;;;5035049;28;20041;-77
2022/09/28 02:40:36;;;;;;;3.10;2.35;;;6.40;99.90;;;;;;5051535;28;20410;-77
2022/09/28 02:43:36;;;;;;;3.17;2.50;;;6.40;99.90;;;;;;5051819;28;20070;-77
2022/09/28 02:46:25;;;;;;;4.20;3.00;;;6.30;99.90;;;;;;5051574;28;20041;-77
2022/09/28 02:49:00;;;;;;;3.95;3.00;;;6.30;99.90;;;;;;5031546;28;20077;-77
2022/09/28 02:51:47;;;;;;;4.00;2.78;;;6.30;99.90;;;;;;5035142;28;20041;-77
2022/09/28 02:54:51;;;;;;;4.93;2.13;;;6.30;99.90;;;;;;5049711;28;20037;-76
2022/09/28 02:57:30;;;;;;;4.00;3.05;;;6.30;99.90;;;;;;5028173;28;20040;-77
2022/09/28 03:00:11;;;;;;;4.50;2.67;;;6.30;99.90;;;;;;5028582;28;20037;-77
2022/09/28 03:02:56;;;;;;;5.10;3.65;;;6.30;99.90;;;;;;5034408;28;20567;-77
2022/09/28 03:05:44;;;;;;;5.22;3.10;;;6.30;99.90;;;;;;5033103;28;20109;-77
2022/09/28 03:08:25;;;;;;;5.53;3.03;;;6.30;99.90;;;;;;5030597;28;20049;-77
2022/09/28 03:11:08;;;;;;;6.05;2.75;;;6.40;99.90;;;;;;5034161;28;20059;-77
2022/09/28 03:13:34;;;;;;;5.00;3.35;;;6.40;99.90;;;;;;5033824;28;20091;-77
2022/09/28 03:16:20;;;;;;;4.80;3.25;;;6.40;99.90;;;;;;5048933;28;20553;-77
2022/09/28 03:18:46;;;;;;;7.30;3.20;;;6.50;99.90;;;;;;5108592;22;20060;-76
2022/09/28 03:21:13;;;;;;;6.88;3.83;;;6.50;99.90;;;;;;5073628;28;20113;-76
2022/09/28 03:23:39;;;;;;;8.07;4.32;;;6.60;99.90;;;;;;5073269;28;20032;-77
2022/09/28 03:26:07;;;;;;;7.45;4.28;;;6.60;99.90;;;;;;5073731;28;20039;-77
2022/09/28 03:28:35;;;;;;;8.57;4.93;;;6.70;99.90;;;;;;5073364;28;20040;-77
2022/09/28 03:31:00;;;;;;;11.60;3.45;;;6.70;99.90;;;;;;5055720;28;20436;-77
2022/09/28 03:33:26;;;;;;;9.02;4.00;;;6.80;99.90;;;;;;5037017;28;20044;-77
2022/09/28 03:35:52;;;;;;;8.02;4.40;;;6.80;99.90;;;;;;5061042;28;20036;-77
2022/09/28 03:38:18;;;;;;;9.20;4.43;;;6.80;99.90;;;;;;5037714;28;20073;-77
2022/09/28 03:40:51;;;;;;;9.90;4.70;;;6.80;99.90;;;;;;5052793;28;20043;-77
2022/09/28 03:43:16;;;;;;;;;;;6.90;99.90;;;;;;5053915;28;20042;-76
2022/09/28 03:45:42;;;;;;;9.65;5.22;;;7.00;99.90;;;;;;5053274;28;19999;-77
2022/09/28 03:48:08;;;;;;;10.13;4.43;;;7.00;99.90;;;;;;5036783;28;20039;-76
2022/09/28 03:50:33;;;;;;;12.43;3.72;;;7.00;99.90;;;;;;5045419;28;20043;-77
2022/09/28 03:53:03;;;;;;;10.32;4.00;;;7.00;99.90;;;;;;5017412;28;20033;-77
2022/09/28 03:55:28;;;;;;;10.25;4.40;;;7.10;99.90;;;;;;5055571;28;20028;-77
2022/09/28 03:57:57;;;;;;;13.93;4.65;;;7.10;99.90;;;;;;5048032;28;20039;-77
2022/09/28 04:00:23;;;;;;;10.40;4.05;;;7.20;99.90;;;;;;5073345;28;20040;-77
2022/09/28 04:02:48;;;;;;;13.02;4.32;;;7.20;99.90;;;;;;5053014;28;20119;-77
2022/09/28 04:05:14;;;;;;;14.70;4.63;;;7.30;99.90;;;;;;5045796;28;20135;-77
2022/09/28 04:07:39;;;;;;;16.25;3.90;;;7.30;99.90;;;;;;5061858;28;20569;-77
2022/09/28 04:10:05;;;;;;;13.73;4.38;;;7.30;99.90;;;;;;5056967;28;20043;-77
2022/09/28 04:12:31;;;;;;;11.60;4.60;;;7.40;99.90;;;;;;5062118;28;20033;-77
2022/09/28 04:14:56;;;;;;;11.52;3.88;;;7.40;99.90;;;;;;5054288;28;20111;-77
2022/09/28 04:17:22;;;;;;;14.70;3.38;;;7.50;99.90;;;;;;5041576;28;20070;-77
2022/09/28 04:19:48;;;;;;;16.13;3.05;;;7.50;99.90;;;;;;5065539;28;20098;-77
2022/09/28 04:22:13;;;;;;;20.33;3.50;;;7.50;99.90;;;;;;5055742;28;20040;-77
2022/09/28 04:24:42;;;;;;;13.93;4.07;;;7.60;99.90;;;;;;5040292;28;20036;-77
2022/09/28 04:29:51;;;;;;;17.17;3.60;;;7.60;99.90;;;;;;5056825;28;20055;-77
2022/09/28 04:32:17;;;;;;;12.50;4.32;;;7.60;99.90;;;;;;5039776;28;20032;-76
2022/09/28 04:34:42;;;;;;;15.30;4.10;;;7.60;99.90;;;;;;5056732;28;20082;-76
2022/09/28 04:37:08;;;;;;;15.38;3.17;;;7.70;99.90;;;;;;5056569;28;20060;-76
2022/09/28 04:39:33;;;;;;;13.35;3.58;;;7.70;99.90;;;;;;5038605;28;20489;-76
2022/09/28 04:42:00;;;;;;;13.18;3.85;;;7.70;99.90;;;;;;5040163;28;20069;-77
2022/09/28 04:44:25;;;;;;;11.90;3.55;;;7.80;99.90;;;;;;5051656;28;20055;-77
2022/09/28 04:46:51;;;;;;;12.50;3.85;;;7.70;99.90;;;;;;5071480;28;20036;-77
2022/09/28 04:49:16;;;;;;;11.63;3.80;;;7.80;99.90;;;;;;5039797;28;20041;-77
2022/09/28 04:51:42;;;;;;;13.27;3.65;;;7.80;99.90;;;;;;5031850;28;20498;-77
2022/09/28 04:54:07;;;;;;;12.60;3.55;;;7.80;99.90;;;;;;5052069;28;20132;-77
2022/09/28 04:56:33;;;;;;;12.82;3.63;;;7.80;99.90;;;;;;5053307;28;20040;-77
2022/09/28 04:58:58;;;;;;;13.05;3.33;;;7.80;99.90;;;;;;5036269;28;20037;-77
2022/09/28 05:01:24;;;;;;;12.95;3.83;;;7.80;99.90;;;;;;5053147;28;20045;-77
2022/09/28 05:03:50;;;;;;;10.85;3.72;;;7.80;99.90;;;;;;5038551;28;20040;-77
2022/09/28 05:06:16;;;;;;;11.13;3.20;;;7.80;99.90;;;;;;5055869;28;20178;-77
2022/09/28 05:08:41;;;;;;;13.85;4.40;;;7.80;99.90;;;;;;5037920;28;20036;-77
2022/09/28 05:11:10;;;;;;;11.60;3.88;;;7.80;99.90;;;;;;5054341;28;20028;-77
2022/09/28 05:13:44;;;;;;;11.43;3.58;;;7.90;99.90;;;;;;5038901;28;20058;-76
2022/09/28 05:16:12;;;;;;;11.48;3.85;;;7.90;99.90;;;;;;5056024;28;20430;-76
2022/09/28 05:18:38;;;;;;;11.75;4.47;;;7.90;99.90;;;;;;5069555;28;20393;-76
2022/09/28 05:21:13;;;;;;;9.27;4.07;;;7.90;99.90;;;;;;5054753;28;20040;-76
2022/09/28 05:23:44;;;;;;;9.48;3.00;;;7.90;99.90;;;;;;5056063;28;20080;-77
2022/09/28 05:26:10;;;;;;;9.32;4.15;;;7.90;99.90;;;;;;5072508;28;20513;-77
2022/09/28 05:28:35;;;;;;;13.80;5.22;;;7.90;99.90;;;;;;5054916;28;20055;-77
2022/09/28 05:31:03;;;;;;;9.95;4.13;;;7.90;99.90;;;;;;5071120;28;20508;-77
2022/09/28 05:33:30;;;;;;;11.68;4.47;;;7.90;99.90;;;;;;5069465;28;20086;-76
2022/09/28 05:35:56;;;;;;;13.68;5.00;;;7.90;99.90;;;;;;5067787;28;20076;-76
2022/09/28 05:38:22;;;;;;;10.50;4.82;;;8.00;99.90;;;;;;5070988;28;20087;-76
2022/09/28 05:40:48;;;;;;;12.63;5.00;;;7.90;99.90;;;;;;5038967;28;20044;-76
2022/09/28 05:43:14;;;;;;;10.15;4.05;;;7.90;99.90;;;;;;5038399;28;20379;-76
2022/09/28 05:45:39;;;;;;;10.70;4.53;;;7.90;99.90;;;;;;5038960;28;20036;-77
2022/09/28 05:48:05;;;;;;;13.02;5.10;;;7.90;99.90;;;;;;5042430;28;20055;-77
2022/09/28 05:50:30;;;;;;;10.07;5.13;;;8.00;99.90;;;;;;5059676;28;20048;-77
2022/09/28 05:53:07;;;;;;;10.90;4.47;;;8.00;99.90;;;;;;5037031;28;20028;-77
2022/09/28 05:55:34;;;;;;;11.15;5.20;;;8.00;99.90;;;;;;5055508;28;20582;-77
2022/09/28 05:58:01;;;;;;;11.00;4.35;;;8.10;99.90;;;;;;5054555;28;20394;-77
2022/09/28 06:00:28;;;;;;;10.30;4.90;;;8.00;99.90;;;;;;5038347;28;20032;-77
2022/09/28 06:02:59;;;;;;;10.85;4.93;;;8.10;99.90;;;;;;5036539;28;20085;-77
2022/09/28 06:05:25;;;;;;;7.60;4.10;;;8.10;99.90;;;;;;5055350;28;20032;-77
2022/09/28 06:07:54;;;;;;;8.23;4.78;;;8.10;99.90;;;;;;5064993;28;20114;-77
2022/09/28 06:10:19;;;;;;;8.30;4.70;;;8.10;99.90;;;;;;5075152;28;20035;-76
2022/09/28 06:12:46;;;;;;;8.68;4.72;;;8.20;99.90;;;;;;5065595;28;20438;-76
2022/09/28 06:15:13;;;;;;;8.68;4.80;;;8.20;99.90;;;;;;5038531;28;20406;-77
2022/09/28 06:17:39;;;;;;;10.43;5.22;;;8.30;99.90;;;;;;5051667;28;20074;-75
2022/09/28 06:20:05;;;;;;;8.82;4.82;;;8.30;99.90;;;;;;5038237;28;20510;-76
2022/09/28 06:22:31;;;;;;;9.32;5.10;;;8.40;99.90;;;;;;5053511;28;20039;-79
2022/09/28 06:24:56;;;;;;;7.82;5.10;;;8.40;99.90;;;;;;5053386;28;20032;-76
2022/09/28 06:27:22;;;;;;;9.50;5.28;;;8.40;99.90;;;;;;5060516;28;20086;-76
2022/09/28 06:29:47;;;;;;;8.30;4.88;;;8.50;99.90;;;;;;5053516;28;20045;-76
2022/09/28 06:32:13;;;;;;;8.00;4.78;;;8.50;99.90;;;;;;5037816;28;20037;-76
2022/09/28 06:34:40;;;;;;;7.47;5.38;;;8.60;99.90;;;;;;5037906;28;20051;-77
2022/09/28 06:37:06;;;;;;;7.20;4.45;;;8.60;99.90;;;;;;5036174;28;20101;-76
2022/09/28 06:39:32;;;;;;;7.68;5.65;;;8.70;99.90;;;;;;5050804;28;20498;-76
2022/09/28 06:42:02;;;;;;;7.72;4.68;;;8.70;99.90;;;;;;5036023;28;20036;-76
2022/09/28 06:44:28;;;;;;;8.25;4.43;;;8.60;99.90;;;;;;5049429;28;20068;-76
2022/09/28 06:46:54;;;;;;;9.70;5.05;;;8.60;99.90;;;;;;5054120;28;20435;-76
2022/09/28 06:49:21;;;;;;;7.43;4.45;;;8.70;99.90;;;;;;5043134;28;20044;-76
2022/09/28 06:51:47;;;;;;;7.85;4.00;;;8.70;99.90;;;;;;5036464;28;20044;-78
2022/09/28 06:54:13;;;;;;;6.82;4.40;;;8.70;99.90;;;;;;5033456;28;20406;-77
2022/09/28 06:56:39;;;;;;;7.00;4.78;;;8.80;99.90;;;;;;5045682;28;20044;-77
2022/09/28 06:59:04;;;;;;;6.88;4.05;;;8.80;99.90;;;;;;5053566;28;20033;-77
2022/09/28 07:01:30;;;;;;;5.85;4.22;;;8.80;99.90;;;;;;5047587;28;20123;-77
2022/09/28 07:03:56;;;;;;;6.32;4.40;;;8.90;99.90;;;;;;5078090;28;20044;-77
2022/09/28 07:06:23;;;;;;;6.20;4.35;;;8.80;99.90;;;;;;5052202;28;20040;-77
2022/09/28 07:08:49;;;;;;;6.20;4.32;;;8.80;99.90;;;;;;5037970;28;20465;-76
2022/09/28 07:11:19;;;;;;;6.70;4.30;;;8.90;99.90;;;;;;5041399;28;20121;-77
2022/09/28 07:13:44;;;;;;;6.60;4.30;;;8.90;99.90;;;;;;5053862;28;20093;-76
2022/09/28 07:16:11;;;;;;;7.28;4.60;;;9.00;99.90;;;;;;5048780;28;20036;-77
2022/09/28 07:18:37;;;;;;;7.93;4.82;;;9.00;99.90;;;;;;5035870;28;20044;-77
2022/09/28 07:21:04;;;;;;;8.15;4.70;;;9.00;99.90;;;;;;5054782;28;20047;-77
2022/09/28 07:23:29;;;;;;;5.80;4.13;;;9.00;99.90;;;;;;5042807;28;20482;-77
2022/09/28 07:25:56;;;;;;;5.88;4.10;;;9.10;99.90;;;;;;5054369;28;20040;-76
2022/09/28 07:28:23;;;;;;;7.30;4.75;;;9.10;99.90;;;;;;5054653;28;20040;-77
2022/09/28 07:30:49;;;;;;;7.10;4.55;;;9.20;99.90;;;;;;5072072;28;20134;-77
2022/09/28 07:33:15;;;;;;;8.20;4.28;;;9.20;99.90;;;;;;5064188;28;20051;-77
2022/09/28 07:35:52;;;;;;;6.43;4.32;;;9.20;99.90;;;;;;5053498;28;20074;-77
2022/09/28 07:38:18;;;;;;;7.15;4.82;;;9.30;99.90;;;;;;5056682;28;20044;-77
2022/09/28 07:43:28;;;;;;;6.63;4.82;;;9.50;99.90;;;;;;5063259;28;20098;-76
2022/09/28 07:45:54;;;;;;;7.07;4.47;;;9.50;99.90;;;;;;5064203;28;20037;-77
2022/09/28 07:48:21;;;;;;;6.63;4.60;;;9.50;99.90;;;;;;5056829;28;20448;-77
2022/09/28 07:50:55;;;;;;;7.10;4.90;;;9.50;99.90;;;;;;5056938;28;20101;-77
2022/09/28 07:53:23;;;;;;;5.53;4.15;;;9.50;99.90;;;;;;5050913;28;20040;-77
2022/09/28 07:55:54;;;;;;;5.65;4.20;;;9.50;99.90;;;;;;5059128;28;20500;-76
2022/09/28 07:58:20;;;;;;;6.50;4.75;;;9.50;99.90;;;;;;5060576;28;20063;-77
2022/09/28 08:00:47;;;;;;;5.65;3.80;;;9.50;99.90;;;;;;5060821;28;20070;-77
2022/09/28 08:03:14;;;;;;;5.78;3.97;;;9.50;99.90;;;;;;5070341;28;20044;-77
2022/09/28 08:05:41;;;;;;;5.47;4.07;;;9.50;99.90;;;;;;5043244;28;20056;-77
2022/09/28 08:08:07;;;;;;;6.47;4.22;;;9.50;99.90;;;;;;5064567;28;20049;-76
2022/09/28 08:10:33;;;;;;;5.47;3.65;;;9.60;99.90;;;;;;5040554;28;20406;-76
2022/09/28 08:13:02;;;;;;;5.55;3.65;;;9.70;99.90;;;;;;5047745;28;20040;-76
2022/09/28 08:15:32;;;;;;;5.00;3.40;;;9.80;99.90;;;;;;5072633;28;20043;-76
2022/09/28 08:17:58;;;;;;;3.80;2.67;;;9.80;99.90;;;;;;5060154;28;20075;-76
2022/09/28 08:23:10;;;;;;;6.00;3.58;;;10.00;99.90;;;;;;5067349;28;20090;-76
2022/09/28 08:25:36;;;;;;;5.20;3.50;;;10.00;99.90;;;;;;5067968;28;20118;-76
2022/09/28 08:28:03;;;;;;;4.45;2.90;;;10.00;99.90;;;;;;5048409;28;20411;-76
2022/09/28 08:30:30;;;;;;;5.03;3.20;;;10.00;99.90;;;;;;5057098;28;20128;-76
2022/09/28 08:32:56;;;;;;;4.63;3.10;;;10.00;99.90;;;;;;5042113;28;20063;-76
2022/09/28 08:35:25;;;;;;;5.70;3.80;;;10.00;99.90;;;;;;5070363;28;20133;-76
2022/09/28 08:37:53;;;;;;;6.35;3.67;;;10.00;99.90;;;;;;5056648;28;20045;-76
2022/09/28 08:40:24;;;;;;;5.32;3.80;;;10.10;99.90;;;;;;5047058;28;20032;-76
2022/09/28 08:42:53;;;;;;;6.00;3.50;;;10.20;99.90;;;;;;5075003;28;20040;-76
2022/09/28 08:45:24;;;;;;;5.72;3.72;;;10.30;99.90;;;;;;5060116;28;20468;-76
2022/09/28 08:50:58;;;;;;;4.85;3.30;;;10.50;99.90;;;;;;5052982;28;20036;-76
2022/09/28 08:53:30;;;;;;;4.53;3.17;;;10.60;99.90;;;;;;5038625;28;20122;-76
2022/09/28 08:55:58;;;;;;;4.30;2.93;;;10.60;99.90;;;;;;5039739;28;20452;-77
2022/09/28 08:58:33;;;;;;;4.78;3.00;;;10.70;99.90;;;;;;5036461;28;20409;-77
2022/09/28 09:01:01;;;;;;;3.70;2.60;;;10.70;99.90;;;;;;5039040;28;20076;-76
2022/09/28 09:03:56;;;;;;;3.78;2.70;;;10.80;99.90;;;;;;5054094;28;20048;-77
2022/09/28 09:06:34;;;;;;;4.53;2.83;;;10.90;99.90;;;;;;5027321;28;20051;-76
2022/09/28 09:09:08;;;;;;;3.90;2.95;;;11.00;99.90;;;;;;5035015;28;20040;-76
2022/09/28 09:11:47;;;;;;;3.72;2.38;;;11.40;99.90;;;;;;5034230;28;20089;-77
2022/09/28 09:14:21;;;;;;;4.25;2.72;;;11.70;99.90;;;;;;5057794;28;20044;-76
2022/09/28 09:17:21;;;;;;;3.67;2.40;;;11.80;99.90;;;;;;5064141;28;20028;-76
2022/09/28 09:19:57;;;;;;;2.90;2.22;;;11.90;99.90;;;;;;5093239;22;20056;-76
2022/09/28 09:22:54;;;;;;;2.60;1.70;;;11.90;99.90;;;;;;5033159;28;20039;-76
2022/09/28 09:25:44;;;;;;;2.60;1.58;;;11.90;99.90;;;;;;5036183;28;20032;-76
2022/09/28 09:28:37;;;;;;;2.60;1.95;;;12.00;99.90;;;;;;5039742;28;20094;-77
2022/09/28 09:31:18;;;;;;;2.63;1.88;;;12.10;99.90;;;;;;5030761;28;20044;-75
2022/09/28 09:34:18;;;;;;;1.40;0.95;;;12.20;99.90;;;;;;5041753;28;20040;-76
2022/09/28 09:36:57;;;;;;;1.95;1.20;;;12.30;99.90;;;;;;5024658;28;20146;-76
2022/09/28 09:39:33;;;;;;;1.60;1.40;;;12.40;99.90;;;;;;5018119;28;20040;-76
2022/09/28 09:42:13;;;;;;;2.40;1.60;;;12.50;99.90;;;;;;5042107;28;20047;-76
2022/09/28 09:45:00;;;;;;;2.15;1.52;;;12.70;99.90;;;;;;5043764;28;20040;-76
2022/09/28 09:47:34;;;;;;;2.10;1.65;;;12.90;99.90;;;;;;5027699;28;20055;-76
2022/09/28 09:50:18;;;;;;;4.93;2.78;;;13.00;99.90;;;;;;5023947;28;20076;-76
2022/09/28 09:52:56;;;;;;;2.25;1.55;;;13.00;99.90;;;;;;5013797;28;20513;-77
2022/09/28 09:55:29;;;;;;;1.48;1.10;;;13.00;99.90;;;;;;5023507;28;20410;-76
2022/09/28 09:58:05;;;;;;;2.00;1.60;;;13.10;99.90;;;;;;5022555;28;20126;-76
2022/09/28 10:00:32;;;;;;;1.92;1.55;;;13.20;99.90;;;;;;5019303;28;20112;-76
2022/09/28 10:02:59;;;;;;;1.92;1.58;;;13.50;99.90;;;;;;5017857;28;20033;-76
2022/09/28 10:05:30;;;;;;;1.90;1.45;;;13.60;99.90;;;;;;5018092;28;20033;-76
2022/09/28 10:08:03;;;;;;;2.03;1.08;;;13.70;99.90;;;;;;5020327;28;20048;-76
2022/09/28 10:10:49;;;;;;;1.50;1.00;;;13.80;99.90;;;;;;5022724;28;21277;-76
2022/09/28 10:13:15;;;;;;;1.40;1.00;;;14.10;99.90;;;;;;5033858;28;20046;-76
2022/09/28 10:15:41;;;;;;;1.02;0.82;;;14.30;99.90;;;;;;5018386;28;20465;-76
2022/09/28 10:18:13;;;;;;;1.48;1.15;;;14.10;99.90;;;;;;5024731;28;20041;-76
2022/09/28 10:20:45;;;;;;;1.00;0.80;;;14.00;99.90;;;;;;5028055;28;20390;-76
2022/09/28 10:23:32;;;;;;;0.70;0.70;;;13.90;99.90;;;;;;5022028;28;20044;-75
2022/09/28 10:26:27;;;;;;;0.77;0.70;;;14.10;99.90;;;;;;5012069;28;20037;-76
2022/09/28 10:29:21;;;;;;;0.60;0.60;;;14.20;99.90;;;;;;5018765;28;20044;-76
2022/09/28 10:31:53;;;;;;;0.50;0.50;;;14.40;99.90;;;;;;5017609;28;20107;-76
2022/09/28 10:34:29;;;;;;;0.77;0.50;;;14.70;99.90;;;;;;5015125;28;20052;-75
2022/09/28 10:37:03;;;;;;;0.75;0.60;;;14.90;99.90;;;;;;5015171;28;20041;-75
2022/09/28 10:39:44;;;;;;;0.40;0.40;;;14.80;99.90;;;;;;5041509;28;20040;-75
2022/09/28 10:42:28;;;;;;;0.30;0.30;;;14.70;99.90;;;;;;5029966;28;20041;-75
2022/09/28 10:45:18;;;;;;;0.50;0.50;;;14.60;99.90;;;;;;5020123;28;20093;-75
2022/09/28 10:47:44;;;;;;;0.43;0.38;;;14.80;99.90;;;;;;5032427;28;20072;-75
2022/09/28 10:50:26;;;;;;;0.43;0.40;;;14.60;99.90;;;;;;5033788;28;20041;-75
2022/09/28 10:53:11;;;;;;;0.22;0.22;;;14.50;99.90;;;;;;5022900;28;20121;-76
2022/09/28 10:55:40;;;;;;;0.40;0.40;;;14.20;99.90;;;;;;5018845;28;20037;-76
2022/09/28 10:58:44;;;;;;;0.38;0.38;;;14.20;99.90;;;;;;5032892;28;20029;-75
2022/09/28 11:01:20;;;;;;;0.40;0.40;;;14.50;99.90;;;;;;4949158;28;20041;-76
2022/09/28 11:03:54;;;;;;;0.20;0.20;;;14.70;99.90;;;;;;4956449;28;20211;-76
2022/09/28 11:06:34;;;;;;;0.60;0.38;;;14.90;99.90;;;;;;5024366;28;20114;-75
2022/09/28 11:09:25;;;;;;;0.30;0.25;;;15.30;99.90;;;;;;5025300;28;20063;-76
2022/09/28 11:11:54;;;;;;;0.20;0.20;;;15.30;99.90;;;;;;5025702;28;20036;-76
2022/09/28 11:14:42;;;;;;;0.28;0.20;;;15.20;99.90;;;;;;5016121;28;20148;-77
2022/09/28 11:17:42;;;;;;;0.20;0.20;;;15.00;99.90;;;;;;5013408;28;20067;-76
2022/09/28 11:21:20;;;;;;;;;;;;;;;;;;;;;
2022/09/28 11:24:26;;;;;;;0.13;0.13;;;14.50;99.90;;;;;;5016902;28;20037;-78
2022/09/28 11:27:52;;;;;;;0.50;0.28;;;14.30;99.90;;;;;;5035068;28;20040;-78
2022/09/28 11:30:57;;;;;;;0.20;0.20;;;14.00;99.90;;;;;;4972481;28;20138;-77
2022/09/28 11:33:48;;;;;;;0.77;0.50;;;13.90;99.90;;;;;;5018721;28;20060;-77
2022/09/28 11:37:01;;;;;;;0.30;0.30;;;13.70;99.90;;;;;;5004269;28;20048;-77
2022/09/28 11:43:45;;;;;;;0.40;0.30;;;13.30;99.90;;;;;;4946553;28;20050;-78
2022/09/28 11:47:07;;;;;;;0.30;0.30;;;13.20;99.90;;;;;;4991479;28;20051;-77
2022/09/28 11:50:00;;;;;;;0.57;0.38;;;13.20;99.90;;;;;;5009620;28;20042;-77
2022/09/28 11:52:29;;;;;;;0.20;0.20;;;13.20;99.90;;;;;;4977798;28;20519;-77
2022/09/28 11:55:05;;;;;;;0.55;0.38;;;13.20;99.90;;;;;;4993933;28;20526;-77
2022/09/28 11:57:37;;;;;;;0.40;0.30;;;13.10;99.90;;;;;;5015555;28;20038;-76
2022/09/28 12:00:09;;;;;;;0.40;0.40;;;13.10;99.90;;;;;;4994256;28;20125;-77
2022/09/28 12:02:51;;;;;;;0.20;0.20;;;13.10;99.90;;;;;;4999261;28;20051;-76
2022/09/28 12:05:48;;;;;;;0.38;0.30;;;13.00;99.90;;;;;;5008558;28;20033;-76
2022/09/28 12:08:34;;;;;;;0.20;0.20;;;12.90;99.90;;;;;;4990010;28;20499;-76
2022/09/28 12:11:24;;;;;;;0.30;0.30;;;12.80;99.90;;;;;;4994460;28;20130;-76
2022/09/28 12:13:52;;;;;;;0.38;0.38;;;12.70;99.90;;;;;;4997898;28;20029;-76
2022/09/28 12:16:30;;;;;;;0.55;0.40;;;12.60;99.90;;;;;;4996940;28;20041;-76
2022/09/28 12:19:33;;;;;;;0.30;0.30;;;12.60;99.90;;;;;;5001186;28;20049;-76
2022/09/28 12:22:18;;;;;;;0.40;0.30;;;12.50;99.90;;;;;;5002129;28;20045;-76
2022/09/28 12:24:50;;;;;;;0.13;0.13;;;12.40;99.90;;;;;;5018428;28;20037;-76
2022/09/28 12:27:28;;;;;;;0.13;0.13;;;12.40;99.90;;;;;;4999340;28;20348;-76
2022/09/28 12:30:15;;;;;;;0.30;0.20;;;12.40;99.90;;;;;;5011013;28;20100;-76
2022/09/28 12:33:03;;;;;;;0.20;0.20;;;12.40;99.90;;;;;;5000573;28;20073;-76
2022/09/28 12:35:59;;;;;;;0.20;0.20;;;12.50;99.90;;;;;;5013129;28;20072;-76
2022/09/28 12:39:02;;;;;;;0.25;0.15;;;12.70;99.90;;;;;;5004405;28;20033;-76
2022/09/28 12:41:58;;;;;;;0.32;0.20;;;13.10;99.90;;;;;;5016126;28;20522;-76
2022/09/28 12:44:57;;;;;;;0.10;0.10;;;13.60;99.90;;;;;;5023730;28;20053;-76
2022/09/28 12:51:03;;;;;;;0.30;0.13;;;14.70;99.90;;;;;;4990698;28;20054;-76
2022/09/28 12:54:06;;;;;;;0.10;0.10;;;14.90;99.90;;;;;;4984804;28;20045;-76
2022/09/28 12:57:43;;;;;;;0.10;0.10;;;15.00;99.90;;;;;;5019677;28;20037;-76
2022/09/28 13:00:31;;;;;;;0.10;0.10;;;15.40;99.90;;;;;;5007850;28;20056;-76
2022/09/28 13:03:44;;;;;;;;;;;;;;;;;;;;;
2022/09/28 13:06:32;;;;;;;0.05;0.05;;;16.20;99.90;;;;;;5012220;28;20053;-77
2022/09/28 13:09:31;;;;;;;0.10;0.10;;;16.50;99.90;;;;;;5007086;28;20041;-76
2022/09/28 13:12:38;;;;;;;0.03;0.03;;;16.90;99.90;;;;;;5010949;28;20049;-76
2022/09/28 13:15:27;;;;;;;0.10;0.10;;;17.00;99.90;;;;;;4998416;28;20372;-77
2022/09/28 13:18:44;;;;;;;0.38;0.10;;;17.30;99.90;;;;;;5028227;28;20065;-77
2022/09/28 13:21:51;;;;;;;;;;;;;;;;;;;;;
2022/09/28 13:24:43;;;;;;;0.10;0.10;;;17.60;99.90;;;;;;5013977;28;20041;-77
2022/09/28 13:27:25;;;;;;;0.13;0.13;;;17.70;99.90;;;;;;5014130;28;20483;-78
2022/09/28 13:29:57;;;;;;;0.17;0.10;;;17.50;99.90;;;;;;5014120;28;20042;-78
2022/09/28 13:32:25;;;;;;;0.32;0.20;;;17.60;99.90;;;;;;5004004;28;20491;-77
2022/09/28 13:35:05;;;;;;;0.30;0.10;;;17.50;99.90;;;;;;5016559;28;20111;-78
2022/09/28 13:37:33;;;;;;;0.38;0.20;;;17.40;99.90;;;;;;4996173;28;20124;-78
2022/09/28 13:40:05;;;;;;;0.10;0.10;;;17.30;99.90;;;;;;4993168;28;20045;-78
2022/09/28 13:42:55;;;;;;;0.10;0.10;;;17.30;99.90;;;;;;5010661;28;20063;-77
2022/09/28 13:45:24;;;;;;;0.25;0.20;;;17.30;99.90;;;;;;5023292;28;20051;-78
2022/09/28 13:47:56;;;;;;;0.20;0.20;;;17.10;99.90;;;;;;4996059;28;20037;-78
2022/09/28 13:50:50;;;;;;;0.20;0.20;;;17.00;99.90;;;;;;5011018;28;20042;-78
2022/09/28 13:53:59;;;;;;;0.20;0.20;;;16.70;99.90;;;;;;4999002;28;20041;-78
2022/09/28 14:00:41;;;;;;;;;;;;;;;;;;;;;